Time;durP1;ratioP1;P1;durP2;ratioP2;P2;SDS_P1;SDS_P2;PMS_P1;PMS_P2;Temp;Humidity;BMP_temperature;BMP_pressure;BME280_temperature;BME280_humidity;BME280_pressure;Samples;Min_cycle;Max_cycle;Signal;HPM_P1;HPM_P2
2022/03/09 00:00:33;;;;;;;17.23;8.00;;;0.30;72.20;;;;;;6309068;22;20075;-65
2022/03/09 00:02:59;;;;;;;11.52;7.65;;;0.20;72.00;;;;;;6310459;22;20379;-65
2022/03/09 00:05:25;;;;;;;14.73;8.32;;;0.20;72.20;;;;;;6308647;22;20011;-65
2022/03/09 00:07:51;;;;;;;13.05;7.57;;;0.20;72.20;;;;;;6309617;22;20533;-65
2022/03/09 00:10:17;;;;;;;14.30;8.45;;;0.10;72.30;;;;;;6306449;22;20007;-65
2022/03/09 00:12:43;;;;;;;13.40;8.05;;;0.10;72.40;;;;;;6309573;22;20016;-64
2022/03/09 00:15:10;;;;;;;11.73;7.30;;;0.00;72.50;;;;;;6309966;22;20056;-66
2022/03/09 00:17:44;;;;;;;15.63;8.40;;;0.10;72.50;;;;;;6311338;22;20272;-66
2022/03/09 00:20:10;;;;;;;17.73;7.35;;;0.00;72.70;;;;;;6310166;22;20007;-66
2022/03/09 00:22:36;;;;;;;14.90;8.70;;;-0.20;73.00;;;;;;6310718;22;20522;-64
2022/03/09 00:25:02;;;;;;;12.73;7.68;;;-0.30;73.50;;;;;;6309940;22;20072;-64
2022/03/09 00:27:30;;;;;;;15.25;7.82;;;-0.10;73.30;;;;;;6311603;22;20000;-64
2022/03/09 00:29:56;;;;;;;13.52;7.28;;;-0.10;73.20;;;;;;6310827;22;20074;-64
2022/03/09 00:32:22;;;;;;;12.45;7.65;;;-0.30;73.50;;;;;;6311572;22;20333;-64
2022/03/09 00:34:48;;;;;;;14.98;8.30;;;-0.50;73.90;;;;;;6311032;22;20060;-66
2022/03/09 00:37:14;;;;;;;12.98;7.75;;;-0.70;74.70;;;;;;6311129;22;20328;-66
2022/03/09 00:39:40;;;;;;;12.93;7.75;;;-0.70;75.10;;;;;;6309848;22;20034;-64
2022/03/09 00:42:09;;;;;;;14.38;8.05;;;-0.90;75.90;;;;;;6310108;22;20384;-65
2022/03/09 00:44:35;;;;;;;12.63;7.95;;;-1.20;76.70;;;;;;6310896;22;20007;-66
2022/03/09 00:47:01;;;;;;;14.52;7.85;;;-1.50;77.60;;;;;;6309521;22;20012;-65
2022/03/09 00:49:27;;;;;;;13.60;7.72;;;-1.80;78.50;;;;;;6311421;22;20356;-65
2022/03/09 00:51:53;;;;;;;14.40;8.48;;;-1.80;79.40;;;;;;6312242;22;20265;-65
2022/03/09 00:54:19;;;;;;;13.02;7.72;;;-1.70;79.10;;;;;;6309087;22;20003;-65
2022/03/09 00:56:46;;;;;;;13.13;7.70;;;-1.60;78.90;;;;;;6310796;22;20003;-65
2022/03/09 00:59:12;;;;;;;14.82;7.60;;;-1.60;79.20;;;;;;6311859;22;20006;-64
2022/03/09 01:01:37;;;;;;;15.60;8.50;;;-1.50;78.80;;;;;;6312115;22;19999;-65
2022/03/09 01:04:03;;;;;;;12.50;7.55;;;-1.30;78.50;;;;;;6311727;22;20006;-65
2022/03/09 01:06:29;;;;;;;12.20;7.85;;;-1.20;77.90;;;;;;6310552;22;20479;-65
2022/03/09 01:08:57;;;;;;;14.70;8.00;;;-1.20;78.00;;;;;;6309787;22;20066;-65
2022/03/09 01:11:23;;;;;;;13.48;7.70;;;-1.20;77.50;;;;;;6311625;22;19996;-65
2022/03/09 01:13:49;;;;;;;14.95;8.48;;;-1.30;77.90;;;;;;6309925;22;20494;-63
2022/03/09 01:16:15;;;;;;;14.40;8.43;;;-1.20;78.20;;;;;;6312129;22;19999;-65
2022/03/09 01:18:44;;;;;;;15.60;8.35;;;-1.00;77.70;;;;;;6311561;22;20022;-65
2022/03/09 01:21:10;;;;;;;18.25;8.70;;;-0.90;77.40;;;;;;6311501;22;20014;-66
2022/03/09 01:23:36;;;;;;;16.58;7.85;;;-0.90;77.00;;;;;;6308583;22;20356;-64
2022/03/09 01:26:02;;;;;;;12.35;7.57;;;-0.90;77.40;;;;;;6311857;22;20007;-65
2022/03/09 01:28:28;;;;;;;13.48;7.72;;;-1.00;77.50;;;;;;6311682;22;20034;-65
2022/03/09 01:30:54;;;;;;;12.77;7.50;;;-1.10;77.90;;;;;;6309044;22;20392;-65
2022/03/09 01:33:20;;;;;;;12.38;7.55;;;-1.20;78.30;;;;;;6311945;22;20003;-65
2022/03/09 01:35:48;;;;;;;15.15;7.72;;;-1.30;78.80;;;;;;6311065;22;20006;-65
2022/03/09 01:38:17;;;;;;;13.27;8.15;;;-1.40;79.20;;;;;;6311670;22;20242;-65
2022/03/09 01:40:43;;;;;;;13.70;8.57;;;-1.50;79.50;;;;;;6310267;22;20006;-65
2022/03/09 01:43:09;;;;;;;16.83;8.20;;;-1.50;79.80;;;;;;6310716;22;20007;-65
2022/03/09 01:45:35;;;;;;;17.30;8.80;;;-1.70;80.20;;;;;;6311112;22;20006;-65
2022/03/09 01:48:01;;;;;;;14.65;8.52;;;-1.70;80.30;;;;;;6311681;22;20421;-64
2022/03/09 01:50:27;;;;;;;15.75;8.40;;;-2.00;81.50;;;;;;6310987;22;20027;-64
2022/03/09 01:52:52;;;;;;;16.50;7.95;;;-2.20;82.30;;;;;;6311177;22;20425;-65
2022/03/09 01:55:18;;;;;;;13.95;8.10;;;-2.50;82.70;;;;;;6309529;22;20007;-64
2022/03/09 01:57:44;;;;;;;15.82;8.60;;;-2.60;83.10;;;;;;6311542;22;20003;-65
2022/03/09 02:00:11;;;;;;;14.27;8.30;;;-2.60;83.20;;;;;;6311169;22;20002;-64
2022/03/09 02:02:37;;;;;;;15.55;9.07;;;-2.60;83.50;;;;;;6310993;22;20003;-65
2022/03/09 02:05:04;;;;;;;15.45;8.23;;;-2.80;83.90;;;;;;6311323;22;20049;-65
2022/03/09 02:10:19;;;;;;;19.70;10.38;;;-3.20;85.80;;;;;;6308437;22;20006;-65
2022/03/09 02:12:45;;;;;;;17.27;9.63;;;-3.40;86.50;;;;;;6311308;22;20010;-65
2022/03/09 02:15:11;;;;;;;17.23;10.00;;;-3.50;87.40;;;;;;6311276;22;19999;-64
2022/03/09 02:17:37;;;;;;;17.02;9.75;;;-3.70;88.00;;;;;;6311422;22;20009;-65
2022/03/09 02:20:03;;;;;;;18.65;9.93;;;-3.90;88.50;;;;;;6311211;22;20045;-64
2022/03/09 02:22:38;;;;;;;20.33;10.38;;;-4.10;89.00;;;;;;6310324;22;20074;-65
2022/03/09 02:25:10;;;;;;;17.75;9.63;;;-4.10;89.20;;;;;;6309630;22;20360;-65
2022/03/09 02:27:37;;;;;;;18.05;9.70;;;-4.10;89.60;;;;;;6283730;22;20007;-65
2022/03/09 02:30:04;;;;;;;21.17;10.50;;;-4.10;90.10;;;;;;6310924;22;19999;-65
2022/03/09 02:32:31;;;;;;;16.35;9.45;;;-3.90;90.00;;;;;;6309246;22;20406;-65
2022/03/09 02:34:57;;;;;;;16.77;10.02;;;-3.70;89.30;;;;;;6310671;22;20003;-63
2022/03/09 02:37:23;;;;;;;16.10;9.52;;;-3.50;88.70;;;;;;6310844;22;20006;-65
2022/03/09 02:39:52;;;;;;;16.33;9.27;;;-3.30;88.00;;;;;;6309312;22;20078;-64
2022/03/09 02:42:18;;;;;;;16.33;9.55;;;-3.10;87.10;;;;;;6310629;22;20009;-65
2022/03/09 02:44:44;;;;;;;17.20;9.25;;;-3.00;86.40;;;;;;6310785;22;20079;-65
2022/03/09 02:47:09;;;;;;;19.08;10.25;;;-3.00;86.30;;;;;;6310574;22;20732;-65
2022/03/09 02:49:35;;;;;;;17.35;9.95;;;-3.20;86.60;;;;;;6310690;22;20002;-65
2022/03/09 02:52:01;;;;;;;16.08;9.88;;;-3.30;87.10;;;;;;6310052;22;20006;-63
2022/03/09 02:54:27;;;;;;;15.75;9.45;;;-3.30;87.80;;;;;;6309381;22;20023;-63
2022/03/09 02:56:53;;;;;;;16.00;9.75;;;-3.30;87.60;;;;;;6310524;22;19999;-65
2022/03/09 02:59:22;;;;;;;17.98;9.88;;;-3.20;87.30;;;;;;6310541;22;19999;-65
2022/03/09 03:01:50;;;;;;;16.40;9.23;;;-3.00;86.80;;;;;;6310733;22;20058;-63
2022/03/09 03:04:19;;;;;;;16.88;9.27;;;-2.90;86.30;;;;;;6310305;22;20003;-63
2022/03/09 03:06:45;;;;;;;18.23;10.48;;;-2.70;85.40;;;;;;6310316;22;20023;-66
2022/03/09 03:09:11;;;;;;;17.38;10.10;;;-2.70;85.20;;;;;;6308809;22;20242;-65
2022/03/09 03:11:37;;;;;;;15.80;9.38;;;-2.70;85.00;;;;;;6309875;22;19999;-64
2022/03/09 03:14:05;;;;;;;15.93;8.52;;;-2.80;85.30;;;;;;6310148;22;20387;-65
2022/03/09 03:16:31;;;;;;;15.05;9.07;;;-2.90;85.60;;;;;;6310335;22;20007;-63
2022/03/09 03:18:57;;;;;;;17.83;10.13;;;-3.00;86.00;;;;;;6310637;22;20004;-62
2022/03/09 03:21:25;;;;;;;18.83;10.20;;;-3.10;86.20;;;;;;6310591;22;19999;-62
2022/03/09 03:23:53;;;;;;;17.98;9.77;;;-3.30;87.00;;;;;;6308227;22;20509;-63
2022/03/09 03:26:24;;;;;;;20.10;9.88;;;-3.40;87.60;;;;;;6310610;22;20003;-62
2022/03/09 03:28:51;;;;;;;17.75;9.88;;;-3.60;88.00;;;;;;6309126;22;20463;-65
2022/03/09 03:31:19;;;;;;;18.52;10.70;;;-3.60;88.80;;;;;;6310198;22;19995;-65
2022/03/09 03:33:45;;;;;;;18.45;9.73;;;-3.50;88.90;;;;;;6310582;22;20422;-65
2022/03/09 03:36:11;;;;;;;18.08;11.40;;;-3.40;88.40;;;;;;6310415;22;20112;-65
2022/03/09 03:38:38;;;;;;;18.27;10.68;;;-3.40;87.90;;;;;;6307394;22;20026;-65
2022/03/09 03:41:04;;;;;;;19.25;11.07;;;-3.50;88.00;;;;;;6310798;22;20357;-65
2022/03/09 03:43:35;;;;;;;16.90;10.43;;;-3.70;88.30;;;;;;6310093;22;20057;-65
2022/03/09 03:46:01;;;;;;;19.42;10.02;;;-3.80;88.70;;;;;;6309748;22;20005;-64
2022/03/09 03:48:29;;;;;;;19.17;10.75;;;-3.90;89.00;;;;;;6310393;22;20019;-65
2022/03/09 03:50:55;;;;;;;18.55;10.63;;;-4.10;89.50;;;;;;6311463;22;20031;-64
2022/03/09 03:53:21;;;;;;;21.38;10.55;;;-4.10;89.90;;;;;;6311959;22;20011;-64
2022/03/09 03:55:47;;;;;;;54.65;25.88;;;-4.10;90.20;;;;;;6311587;22;20025;-65
2022/03/09 03:58:13;;;;;;;270.02;97.65;;;-3.80;89.80;;;;;;6312323;22;20050;-63
2022/03/09 04:00:41;;;;;;;152.88;59.88;;;-3.40;88.50;;;;;;6311730;22;20013;-64
2022/03/09 04:03:07;;;;;;;28.83;14.35;;;-3.30;87.60;;;;;;6312318;22;20079;-65
2022/03/09 04:05:33;;;;;;;28.25;17.25;;;-3.30;87.30;;;;;;6312610;22;20356;-66
2022/03/09 04:07:59;;;;;;;19.65;10.93;;;-3.20;87.00;;;;;;6312651;22;20006;-65
2022/03/09 04:10:25;;;;;;;19.15;10.65;;;-3.10;86.70;;;;;;6310533;22;20353;-65
2022/03/09 04:12:51;;;;;;;18.92;10.93;;;-3.20;86.80;;;;;;6311923;22;19999;-65
2022/03/09 04:15:17;;;;;;;18.90;10.48;;;-3.20;86.70;;;;;;6311787;22;20008;-63
2022/03/09 04:17:45;;;;;;;21.63;11.80;;;-3.20;86.60;;;;;;6312410;22;20042;-64
2022/03/09 04:20:13;;;;;;;18.08;10.35;;;-3.20;86.80;;;;;;6311362;22;20003;-65
2022/03/09 04:22:39;;;;;;;18.75;11.00;;;-3.20;86.90;;;;;;6312173;22;20007;-64
2022/03/09 04:25:06;;;;;;;16.48;10.35;;;-3.20;86.80;;;;;;6310761;22;19999;-64
2022/03/09 04:27:32;;;;;;;18.63;10.65;;;-3.10;86.40;;;;;;6311700;22;20022;-63
2022/03/09 04:29:58;;;;;;;17.55;10.00;;;-3.10;86.20;;;;;;6312140;22;19995;-64
2022/03/09 04:32:25;;;;;;;17.30;10.40;;;-3.10;86.10;;;;;;6311652;22;20007;-64
2022/03/09 04:34:54;;;;;;;19.23;9.98;;;-3.10;86.30;;;;;;6311967;22;20078;-63
2022/03/09 04:37:20;;;;;;;18.77;11.07;;;-3.10;86.40;;;;;;6311842;22;19999;-62
2022/03/09 04:39:47;;;;;;;18.25;9.93;;;-3.10;86.30;;;;;;6308570;22;20012;-63
2022/03/09 04:42:13;;;;;;;19.13;10.73;;;-3.10;86.30;;;;;;6311985;22;20003;-64
2022/03/09 04:44:39;;;;;;;22.52;10.95;;;-3.00;86.20;;;;;;6311883;22;20003;-63
2022/03/09 04:47:05;;;;;;;20.15;10.82;;;-3.00;86.10;;;;;;6311979;22;20004;-64
2022/03/09 04:49:31;;;;;;;18.65;11.00;;;-3.10;86.10;;;;;;6312148;22;20053;-64
2022/03/09 04:51:57;;;;;;;17.70;10.13;;;-3.10;86.60;;;;;;6311887;22;20079;-64
2022/03/09 04:54:23;;;;;;;22.08;10.88;;;-3.20;86.70;;;;;;6310894;22;20060;-65
2022/03/09 04:56:49;;;;;;;17.63;10.73;;;-3.20;86.80;;;;;;6310528;22;20061;-64
2022/03/09 04:59:17;;;;;;;17.88;10.15;;;-3.20;86.80;;;;;;6310634;22;20057;-63
2022/03/09 05:01:44;;;;;;;18.75;10.48;;;-3.10;86.70;;;;;;6311568;22;20365;-64
2022/03/09 05:04:10;;;;;;;21.35;10.85;;;-3.10;86.60;;;;;;6311287;22;20003;-63
2022/03/09 05:06:36;;;;;;;19.77;10.95;;;-3.20;86.70;;;;;;6311913;22;20015;-63
2022/03/09 05:09:04;;;;;;;19.90;10.23;;;-3.40;86.90;;;;;;6309907;22;20072;-64
2022/03/09 05:11:31;;;;;;;20.42;10.48;;;-3.40;87.40;;;;;;6311456;22;20364;-64
2022/03/09 05:13:57;;;;;;;17.48;10.70;;;-3.30;87.30;;;;;;6311989;22;19999;-63
2022/03/09 05:16:23;;;;;;;16.60;9.55;;;-3.20;86.80;;;;;;6311107;22;20071;-63
2022/03/09 05:18:49;;;;;;;17.42;10.45;;;-3.10;86.40;;;;;;6312156;22;20023;-63
2022/03/09 05:21:15;;;;;;;17.15;9.98;;;-3.10;86.20;;;;;;6311900;22;20052;-63
2022/03/09 05:23:41;;;;;;;20.88;11.52;;;-3.10;86.20;;;;;;6308738;22;20365;-64
2022/03/09 05:26:07;;;;;;;18.70;10.13;;;-3.10;86.30;;;;;;6310225;22;19999;-64
2022/03/09 05:28:33;;;;;;;21.27;10.48;;;-3.20;86.50;;;;;;6311600;22;20023;-65
2022/03/09 05:30:59;;;;;;;23.35;10.65;;;-3.20;86.60;;;;;;6312211;22;20076;-62
2022/03/09 05:33:25;;;;;;;18.77;10.75;;;-3.10;86.40;;;;;;6311282;22;19996;-63
2022/03/09 05:35:51;;;;;;;19.92;10.25;;;-3.10;86.20;;;;;;6311794;22;20003;-64
2022/03/09 05:38:18;;;;;;;18.73;9.98;;;-3.10;86.30;;;;;;6311609;22;20256;-62
2022/03/09 05:40:44;;;;;;;20.02;10.45;;;-3.10;86.30;;;;;;6309927;22;20270;-63
2022/03/09 05:43:10;;;;;;;20.30;11.50;;;-3.20;86.40;;;;;;6310218;22;20042;-64
2022/03/09 05:45:36;;;;;;;24.92;10.82;;;-3.20;86.50;;;;;;6311412;22;20261;-64
2022/03/09 05:48:02;;;;;;;19.90;10.80;;;-3.20;86.60;;;;;;6311195;22;19999;-63
2022/03/09 05:50:28;;;;;;;22.38;11.30;;;-3.20;86.70;;;;;;6311085;22;20685;-64
2022/03/09 05:52:57;;;;;;;19.65;10.75;;;-3.20;86.60;;;;;;6311379;22;20000;-63
2022/03/09 05:55:23;;;;;;;20.60;11.52;;;-3.20;86.30;;;;;;6309647;22;20007;-64
2022/03/09 05:57:48;;;;;;;19.90;11.02;;;-3.10;86.10;;;;;;6310996;22;20087;-64
2022/03/09 06:00:19;;;;;;;19.90;12.18;;;-3.00;85.90;;;;;;6310534;22;20031;-62
2022/03/09 06:02:47;;;;;;;20.48;11.27;;;-3.00;85.80;;;;;;6309877;22;20004;-64
2022/03/09 06:05:13;;;;;;;20.90;11.63;;;-3.00;85.80;;;;;;6310667;22;19995;-62
2022/03/09 06:07:39;;;;;;;23.10;11.93;;;-3.00;85.80;;;;;;6310705;22;20288;-62
2022/03/09 06:10:06;;;;;;;20.40;11.60;;;-3.00;85.90;;;;;;6309383;22;19999;-64
2022/03/09 06:12:32;;;;;;;21.05;11.57;;;-3.00;86.10;;;;;;6309609;22;20086;-63
2022/03/09 06:14:58;;;;;;;21.27;11.57;;;-3.00;86.00;;;;;;6310001;22;20031;-62
2022/03/09 06:17:24;;;;;;;21.85;11.65;;;-3.10;86.20;;;;;;6309502;22;20003;-63
2022/03/09 06:19:49;;;;;;;23.08;12.80;;;-3.20;86.50;;;;;;6309879;22;20376;-62
2022/03/09 06:22:15;;;;;;;22.15;12.63;;;-3.30;86.70;;;;;;6310296;22;20004;-62
2022/03/09 06:24:41;;;;;;;23.98;11.90;;;-3.30;87.20;;;;;;6308518;22;20000;-64
2022/03/09 06:27:07;;;;;;;20.70;12.60;;;-3.20;87.10;;;;;;6309917;22;20357;-64
2022/03/09 06:29:33;;;;;;;22.10;12.52;;;-3.10;86.90;;;;;;6309965;22;19995;-63
2022/03/09 06:32:00;;;;;;;26.38;12.75;;;-3.00;86.90;;;;;;6309258;22;20031;-64
2022/03/09 06:34:27;;;;;;;22.73;12.73;;;-3.00;86.70;;;;;;6310942;22;20010;-63
2022/03/09 06:36:53;;;;;;;23.08;12.07;;;-3.00;86.70;;;;;;6311118;22;20311;-63
2022/03/09 06:39:20;;;;;;;20.63;11.63;;;-2.90;86.50;;;;;;6309888;22;20010;-63
2022/03/09 06:41:49;;;;;;;19.27;11.45;;;-2.80;86.10;;;;;;6310649;22;19999;-64
2022/03/09 06:44:15;;;;;;;22.75;12.40;;;-2.60;85.60;;;;;;6310056;22;20003;-64
2022/03/09 06:46:42;;;;;;;20.25;12.45;;;-2.40;85.20;;;;;;6310515;22;20007;-64
2022/03/09 06:49:08;;;;;;;21.95;11.32;;;-2.30;85.20;;;;;;6310290;22;20057;-62
2022/03/09 06:51:35;;;;;;;21.70;11.02;;;-2.20;84.60;;;;;;6310370;22;20004;-63
2022/03/09 06:54:04;;;;;;;18.70;10.07;;;-2.00;83.90;;;;;;6308789;22;19995;-64
2022/03/09 06:56:30;;;;;;;19.00;10.02;;;-1.90;83.60;;;;;;6310062;22;20003;-64
2022/03/09 06:58:56;;;;;;;23.38;12.55;;;-1.90;83.40;;;;;;6310298;22;20023;-65
2022/03/09 07:01:22;;;;;;;19.13;11.32;;;-1.80;83.30;;;;;;6306933;22;19999;-64
2022/03/09 07:03:49;;;;;;;18.95;11.57;;;-1.70;83.20;;;;;;6309624;22;19999;-64
2022/03/09 07:06:15;;;;;;;21.02;12.23;;;-1.60;83.30;;;;;;6308886;22;20007;-64
2022/03/09 07:08:41;;;;;;;21.42;12.15;;;-1.50;82.80;;;;;;6308483;22;20873;-64
2022/03/09 07:11:07;;;;;;;29.75;13.75;;;-1.30;82.10;;;;;;6309149;22;20048;-64
2022/03/09 07:13:38;;;;;;;22.10;12.00;;;-1.20;81.80;;;;;;6310452;22;19999;-63
2022/03/09 07:16:04;;;;;;;24.70;12.57;;;-1.00;81.30;;;;;;6310143;22;20015;-64
2022/03/09 07:18:30;;;;;;;27.65;13.00;;;-0.90;80.90;;;;;;6309935;22;20326;-65
2022/03/09 07:20:56;;;;;;;24.15;11.85;;;-0.70;80.90;;;;;;6309670;22;20000;-63
2022/03/09 07:23:21;;;;;;;22.23;12.50;;;-0.70;80.90;;;;;;6308754;22;20365;-63
2022/03/09 07:25:47;;;;;;;19.75;11.02;;;-0.50;80.70;;;;;;6308945;22;19999;-63
2022/03/09 07:28:13;;;;;;;19.02;11.25;;;-0.40;80.10;;;;;;6309924;22;20026;-63
2022/03/09 07:30:38;;;;;;;17.85;10.98;;;-0.20;79.40;;;;;;6310264;22;20025;-63
2022/03/09 07:33:04;;;;;;;21.20;11.23;;;-0.10;79.40;;;;;;6310181;22;19995;-64
2022/03/09 07:35:30;;;;;;;21.90;12.55;;;0.10;79.00;;;;;;6310234;22;20032;-62
2022/03/09 07:37:56;;;;;;;21.90;13.00;;;0.30;78.60;;;;;;6310547;22;20008;-63
2022/03/09 07:40:22;;;;;;;37.95;21.48;;;0.50;78.00;;;;;;6309421;22;20011;-64
2022/03/09 07:42:48;;;;;;;51.50;26.23;;;0.70;77.80;;;;;;6310442;22;19999;-63
2022/03/09 07:45:13;;;;;;;30.80;19.15;;;0.80;77.40;;;;;;6310778;22;20321;-64
2022/03/09 07:47:39;;;;;;;25.02;14.55;;;1.00;76.90;;;;;;6310784;22;20222;-64
2022/03/09 07:50:07;;;;;;;20.13;12.35;;;1.10;76.30;;;;;;6310329;22;20045;-65
2022/03/09 07:52:33;;;;;;;21.90;12.02;;;1.20;75.40;;;;;;6310917;22;20006;-64
2022/03/09 07:54:59;;;;;;;29.33;13.45;;;1.30;75.40;;;;;;6309117;22;20014;-64
2022/03/09 07:57:25;;;;;;;22.60;13.68;;;1.60;75.10;;;;;;6310677;22;20242;-63
2022/03/09 07:59:51;;;;;;;28.02;15.63;;;1.70;73.50;;;;;;6310789;22;20007;-62
2022/03/09 08:02:16;;;;;;;28.92;16.58;;;2.00;72.20;;;;;;6310281;22;20000;-63
2022/03/09 08:04:42;;;;;;;36.97;17.55;;;2.20;71.70;;;;;;6310415;22;20105;-63
2022/03/09 08:07:07;;;;;;;31.95;19.13;;;2.30;71.50;;;;;;6310329;22;20050;-65
2022/03/09 08:09:33;;;;;;;46.30;24.13;;;2.20;71.70;;;;;;6309156;22;20007;-65
2022/03/09 08:11:59;;;;;;;24.42;14.63;;;2.20;71.40;;;;;;6310793;22;20268;-64
2022/03/09 08:14:24;;;;;;;26.02;14.68;;;2.40;71.40;;;;;;6308590;22;20310;-65
2022/03/09 08:16:50;;;;;;;24.27;14.30;;;2.60;71.40;;;;;;6310434;22;20003;-65
2022/03/09 08:19:16;;;;;;;27.85;15.82;;;2.80;71.20;;;;;;6310022;22;20003;-65
2022/03/09 08:21:42;;;;;;;26.92;15.98;;;2.90;71.80;;;;;;6309931;22;20493;-64
2022/03/09 08:24:08;;;;;;;24.98;13.98;;;3.00;72.20;;;;;;6309042;22;20001;-64
2022/03/09 08:26:34;;;;;;;24.50;15.38;;;3.50;71.50;;;;;;6310697;22;20006;-65
2022/03/09 08:28:59;;;;;;;21.45;13.05;;;4.60;69.20;;;;;;6310552;22;20003;-64
2022/03/09 08:31:26;;;;;;;23.50;14.70;;;6.40;65.40;;;;;;6310454;22;20031;-65
2022/03/09 08:33:51;;;;;;;20.80;12.48;;;7.80;61.40;;;;;;6310345;22;19995;-64
2022/03/09 08:36:17;;;;;;;21.08;11.98;;;8.50;59.20;;;;;;6310878;22;19995;-65
2022/03/09 08:38:43;;;;;;;21.05;12.48;;;9.00;58.00;;;;;;6310858;22;20030;-65
2022/03/09 08:41:09;;;;;;;23.65;12.43;;;10.00;56.20;;;;;;6312171;22;20052;-65
2022/03/09 08:43:35;;;;;;;21.77;12.48;;;10.50;55.20;;;;;;6311828;22;20003;-65
2022/03/09 08:46:00;;;;;;;19.90;12.05;;;10.80;54.10;;;;;;6312156;22;19995;-64
2022/03/09 08:48:26;;;;;;;19.67;12.95;;;11.00;53.80;;;;;;6311864;22;20010;-66
2022/03/09 08:50:55;;;;;;;22.60;12.23;;;12.10;52.10;;;;;;6311792;22;19996;-65
2022/03/09 08:53:24;;;;;;;21.42;13.70;;;12.80;51.10;;;;;;6311457;22;20003;-66
2022/03/09 08:55:49;;;;;;;23.73;14.07;;;12.60;50.60;;;;;;6311968;22;20074;-64
2022/03/09 08:58:15;;;;;;;23.33;13.88;;;12.80;50.60;;;;;;6311720;22;20282;-65
2022/03/09 09:00:41;;;;;;;24.08;13.95;;;12.60;51.20;;;;;;6311631;22;20027;-65
2022/03/09 09:03:09;;;;;;;25.50;15.48;;;12.30;50.80;;;;;;6311941;22;20312;-64
2022/03/09 09:05:37;;;;;;;21.42;13.93;;;11.50;51.90;;;;;;6311911;22;19999;-64
2022/03/09 09:08:03;;;;;;;22.55;14.82;;;11.60;52.70;;;;;;6311525;22;20266;-63
2022/03/09 09:10:29;;;;;;;19.95;13.63;;;11.40;52.40;;;;;;6310802;22;19999;-64
2022/03/09 09:12:58;;;;;;;22.27;14.77;;;11.50;52.00;;;;;;6311952;22;20008;-64
2022/03/09 09:15:24;;;;;;;27.40;15.35;;;11.60;51.80;;;;;;6312215;22;20010;-63
2022/03/09 09:18:04;;;;;;;22.40;13.52;;;11.40;52.70;;;;;;6312081;22;20276;-66
2022/03/09 09:20:30;;;;;;;22.48;13.80;;;11.40;53.20;;;;;;6312016;22;20003;-66
2022/03/09 09:22:56;;;;;;;26.35;14.30;;;11.80;52.40;;;;;;6310587;22;20029;-65
2022/03/09 09:25:24;;;;;;;21.75;13.80;;;11.70;51.70;;;;;;6310180;22;20003;-66
2022/03/09 09:27:53;;;;;;;21.95;15.07;;;11.50;52.50;;;;;;6311281;22;19999;-65
2022/03/09 09:30:32;;;;;;;24.58;15.63;;;12.00;51.50;;;;;;6310846;22;20010;-65
2022/03/09 09:32:59;;;;;;;23.55;15.82;;;12.30;50.70;;;;;;6311551;22;20003;-66
2022/03/09 09:35:25;;;;;;;23.27;14.23;;;12.50;49.80;;;;;;6311808;22;20395;-64
2022/03/09 09:37:50;;;;;;;22.10;13.77;;;12.90;50.40;;;;;;6311297;22;20319;-66
2022/03/09 09:40:16;;;;;;;22.65;15.73;;;13.50;49.40;;;;;;6310205;22;19999;-65
2022/03/09 09:42:45;;;;;;;29.17;16.27;;;13.70;48.40;;;;;;6311391;22;20031;-65
2022/03/09 09:45:11;;;;;;;23.13;15.40;;;13.10;48.00;;;;;;6311854;22;20387;-64
2022/03/09 09:47:37;;;;;;;26.48;15.32;;;13.00;48.90;;;;;;6311152;22;19999;-65
2022/03/09 09:50:06;;;;;;;23.60;14.77;;;13.00;48.10;;;;;;6311567;22;19999;-64
2022/03/09 09:52:33;;;;;;;22.80;14.70;;;13.40;47.10;;;;;;6311173;22;20078;-65
2022/03/09 09:55:00;;;;;;;21.40;13.75;;;13.40;47.10;;;;;;6310178;22;20031;-65
2022/03/09 09:57:28;;;;;;;19.80;13.65;;;13.00;46.40;;;;;;6310630;22;20364;-65
2022/03/09 09:59:54;;;;;;;20.15;13.93;;;13.10;46.50;;;;;;6311358;22;20264;-65
2022/03/09 10:02:20;;;;;;;20.73;14.27;;;13.90;45.30;;;;;;6311637;22;19999;-65
2022/03/09 10:04:47;;;;;;;21.85;14.02;;;13.80;45.40;;;;;;6311507;22;20027;-65
2022/03/09 10:07:17;;;;;;;24.08;14.70;;;13.00;46.00;;;;;;6311433;22;20007;-65
2022/03/09 10:09:46;;;;;;;22.42;15.02;;;12.50;47.20;;;;;;6309838;22;20070;-63
2022/03/09 10:12:13;;;;;;;24.13;13.90;;;12.30;48.70;;;;;;6311600;22;20007;-64
2022/03/09 10:14:44;;;;;;;22.98;14.18;;;12.40;49.20;;;;;;6311399;22;20360;-64
2022/03/09 10:17:13;;;;;;;21.27;13.48;;;12.70;48.40;;;;;;6311797;22;20449;-64
2022/03/09 10:19:45;;;;;;;22.05;14.30;;;12.80;47.20;;;;;;6311431;22;20423;-65
2022/03/09 10:22:27;;;;;;;23.80;14.90;;;12.40;47.90;;;;;;6311455;22;19999;-65
2022/03/09 10:24:55;;;;;;;25.33;15.18;;;12.60;48.30;;;;;;6310481;22;20257;-65
2022/03/09 10:27:39;;;;;;;22.45;13.73;;;12.50;48.10;;;;;;6312091;22;20007;-66
2022/03/09 10:30:13;;;;;;;23.13;14.55;;;12.60;48.70;;;;;;6311118;22;19995;-64
2022/03/09 10:32:56;;;;;;;22.70;15.45;;;13.00;47.70;;;;;;6310492;22;20014;-66
2022/03/09 10:35:31;;;;;;;22.70;15.30;;;13.10;48.10;;;;;;6311430;22;20380;-65
2022/03/09 10:37:59;;;;;;;28.05;16.42;;;12.40;47.90;;;;;;6310766;22;19999;-65
2022/03/09 10:40:26;;;;;;;25.63;16.27;;;12.50;49.00;;;;;;6305936;22;20080;-65
2022/03/09 10:42:52;;;;;;;27.02;16.83;;;12.80;47.30;;;;;;6307816;22;20003;-66
2022/03/09 10:45:18;;;;;;;27.20;16.60;;;12.80;47.40;;;;;;6307772;22;20019;-66
2022/03/09 10:47:49;;;;;;;26.92;17.45;;;12.70;48.30;;;;;;6308086;22;19999;-66
2022/03/09 10:50:16;;;;;;;24.10;15.55;;;13.10;47.40;;;;;;6307879;22;20365;-66
2022/03/09 10:52:44;;;;;;;31.05;17.13;;;13.30;46.90;;;;;;6305937;22;20072;-66
2022/03/09 10:55:43;;;;;;;26.33;16.42;;;13.40;46.90;;;;;;6306088;22;20069;-65
2022/03/09 10:58:18;;;;;;;27.73;16.58;;;13.30;47.80;;;;;;6254973;22;20080;-65
2022/03/09 11:01:02;;;;;;;27.60;17.13;;;13.90;46.70;;;;;;6311485;22;20359;-66
2022/03/09 11:03:33;;;;;;;32.40;17.98;;;14.50;45.30;;;;;;6310719;22;20057;-66
2022/03/09 11:06:03;;;;;;;28.92;16.92;;;14.50;44.90;;;;;;6310825;22;20012;-65
2022/03/09 11:08:30;;;;;;;29.17;17.73;;;13.90;46.00;;;;;;6309119;22;20003;-67
2022/03/09 11:11:00;;;;;;;28.33;17.25;;;14.30;45.30;;;;;;6310809;22;20018;-66
2022/03/09 11:13:28;;;;;;;28.05;18.10;;;13.90;46.10;;;;;;6311275;22;20003;-67
2022/03/09 11:15:54;;;;;;;28.60;17.60;;;14.10;47.00;;;;;;6311210;22;20141;-66
2022/03/09 11:18:22;;;;;;;24.77;15.98;;;14.10;46.40;;;;;;6310760;22;20007;-66
2022/03/09 11:20:49;;;;;;;26.50;17.00;;;14.10;46.20;;;;;;6310402;22;20056;-66
2022/03/09 11:23:16;;;;;;;25.83;16.35;;;14.60;46.00;;;;;;6310998;22;20078;-66
2022/03/09 11:25:50;;;;;;;26.35;16.67;;;15.20;45.70;;;;;;6309498;22;20269;-65
2022/03/09 11:28:28;;;;;;;25.05;16.25;;;15.80;44.20;;;;;;6310858;22;20000;-66
2022/03/09 11:31:00;;;;;;;24.10;16.27;;;16.10;43.00;;;;;;6310013;22;19999;-66
2022/03/09 11:33:45;;;;;;;28.95;17.73;;;15.80;43.00;;;;;;6309105;22;20011;-66
2022/03/09 11:36:29;;;;;;;25.88;17.33;;;15.60;43.00;;;;;;6309410;22;19999;-67
2022/03/09 11:39:04;;;;;;;26.20;15.65;;;14.80;43.60;;;;;;6308102;22;20373;-66
2022/03/09 11:41:37;;;;;;;28.00;17.85;;;15.00;43.90;;;;;;6309194;22;20307;-66
2022/03/09 11:44:18;;;;;;;25.77;15.87;;;15.30;43.80;;;;;;6309896;22;20007;-66
2022/03/09 11:47:00;;;;;;;24.63;16.27;;;15.10;43.80;;;;;;6310473;22;20257;-66
2022/03/09 11:49:49;;;;;;;30.48;17.88;;;15.20;43.60;;;;;;6310429;22;20372;-64
2022/03/09 11:52:25;;;;;;;26.58;15.98;;;15.40;43.20;;;;;;6310801;22;20011;-65
2022/03/09 11:54:56;;;;;;;26.13;16.92;;;15.30;43.40;;;;;;6308934;22;19999;-65
2022/03/09 11:57:48;;;;;;;28.35;16.52;;;15.00;42.30;;;;;;6310849;22;20086;-66
2022/03/09 12:00:21;;;;;;;26.02;16.83;;;14.10;43.20;;;;;;6310571;22;20006;-66
2022/03/09 12:02:55;;;;;;;30.42;16.92;;;14.10;43.60;;;;;;6310904;22;20010;-64
2022/03/09 12:05:43;;;;;;;23.58;16.40;;;13.90;43.90;;;;;;6311043;22;20002;-64
2022/03/09 12:08:14;;;;;;;27.15;16.83;;;14.40;44.90;;;;;;6310631;22;20090;-65
2022/03/09 12:10:52;;;;;;;28.88;17.17;;;14.40;43.30;;;;;;6309052;22;20002;-63
2022/03/09 12:13:21;;;;;;;25.27;15.75;;;14.50;43.60;;;;;;6312490;22;20003;-66
2022/03/09 12:16:04;;;;;;;27.08;17.17;;;14.20;44.30;;;;;;6313063;22;20396;-66
2022/03/09 12:18:41;;;;;;;27.95;15.68;;;15.00;44.10;;;;;;6312168;22;20011;-64
2022/03/09 12:21:09;;;;;;;26.08;17.20;;;15.70;43.90;;;;;;6313100;22;20010;-63
2022/03/09 12:23:35;;;;;;;25.55;15.82;;;15.70;41.50;;;;;;6311071;22;20030;-64
2022/03/09 12:26:02;;;;;;;25.75;16.00;;;15.00;41.90;;;;;;6312694;22;19996;-63
2022/03/09 12:28:34;;;;;;;26.73;15.27;;;15.10;42.30;;;;;;6312590;22;19991;-62
2022/03/09 12:31:03;;;;;;;25.55;16.75;;;14.80;41.70;;;;;;6313005;22;20010;-65
2022/03/09 12:33:36;;;;;;;26.83;16.38;;;14.50;42.10;;;;;;6312122;22;20038;-67
2022/03/09 12:36:04;;;;;;;25.13;14.57;;;14.40;42.10;;;;;;6312737;22;20006;-65